Time;durP1;ratioP1;P1;durP2;ratioP2;P2;SDS_P1;SDS_P2;PMS_P1;PMS_P2;Temp;Humidity;BMP_temperature;BMP_pressure;BME280_temperature;BME280_humidity;BME280_pressure;Samples;Min_cycle;Max_cycle;Signal;HPM_P1;HPM_P2
2023/07/25 00:02:58;;;;;;;2.60;1.40;;;;;;;18.52;100.00;98740.13;12190078;19;20014;-90
2023/07/25 00:07:00;;;;;;;2.60;1.63;;;;;;;18.52;100.00;98731.78;12210693;19;20015;-89
2023/07/25 00:11:02;;;;;;;3.10;1.20;;;;;;;18.53;100.00;98725.06;12207213;19;20463;-90
2023/07/25 00:15:04;;;;;;;1.73;1.27;;;;;;;18.52;100.00;98723.41;12187592;19;20018;-90
2023/07/25 00:19:06;;;;;;;2.53;1.30;;;;;;;18.53;100.00;98719.47;12209210;19;20021;-90
2023/07/25 00:23:08;;;;;;;2.05;1.27;;;;;;;18.53;100.00;98707.47;12211439;19;20011;-89
2023/07/25 00:27:10;;;;;;;3.08;1.40;;;;;;;18.55;100.00;98707.97;12186680;19;20011;-89
2023/07/25 00:31:12;;;;;;;2.30;1.52;;;;;;;18.54;100.00;98712.75;12207272;19;20011;-89
2023/07/25 00:35:16;;;;;;;3.10;1.52;;;;;;;18.55;100.00;98706.00;12205004;19;20015;-87
2023/07/25 00:39:20;;;;;;;2.55;1.30;;;;;;;18.56;100.00;98710.44;12188083;19;20007;-89
2023/07/25 00:43:21;;;;;;;2.33;1.33;;;;;;;18.56;100.00;98707.66;12208551;19;20392;-88
2023/07/25 00:47:23;;;;;;;4.68;1.40;;;;;;;18.58;100.00;98707.31;12209568;19;20006;-89
2023/07/25 00:51:25;;;;;;;2.50;1.43;;;;;;;18.59;100.00;98700.56;12202349;19;20015;-90
2023/07/25 00:55:28;;;;;;;2.00;1.25;;;;;;;18.59;100.00;98697.78;12203997;19;20251;-89
2023/07/25 00:59:30;;;;;;;2.60;1.42;;;;;;;18.58;100.00;98696.97;12185847;19;20021;-89
2023/07/25 01:03:34;;;;;;;2.28;1.35;;;;;;;18.56;100.00;98690.91;12206980;19;20003;-88
2023/07/25 01:07:38;;;;;;;5.97;1.50;;;;;;;18.53;100.00;98687.94;12208328;19;20106;-87
2023/07/25 01:11:40;;;;;;;3.60;1.95;;;;;;;18.42;100.00;98679.94;12185750;19;20002;-87
2023/07/25 01:15:42;;;;;;;3.03;1.80;;;;;;;18.28;100.00;98670.91;12208880;19;20092;-87
2023/07/25 01:19:48;;;;;;;3.43;1.43;;;;;;;18.17;100.00;98670.44;12211848;19;20006;-86
2023/07/25 01:23:50;;;;;;;3.13;1.70;;;;;;;18.10;100.00;98675.66;12189959;19;20106;-87
2023/07/25 01:27:52;;;;;;;2.90;1.38;;;;;;;18.04;100.00;98679.78;12212793;19;20003;-87
2023/07/25 01:31:54;;;;;;;4.63;1.35;;;;;;;18.01;100.00;98671.25;12212742;19;20007;-86
2023/07/25 01:35:56;;;;;;;3.88;1.63;;;;;;;17.93;100.00;98659.75;12187493;19;20700;-87
2023/07/25 01:39:57;;;;;;;4.63;1.77;;;;;;;17.84;100.00;98661.69;12209713;19;20028;-86
2023/07/25 01:43:59;;;;;;;2.28;1.20;;;;;;;17.79;100.00;98658.25;12210716;19;20495;-86
2023/07/25 01:48:01;;;;;;;2.53;1.50;;;;;;;17.75;100.00;98650.50;12188629;19;20013;-84
2023/07/25 01:52:03;;;;;;;2.70;1.50;;;;;;;17.69;100.00;98649.03;12211159;19;20022;-85
2023/07/25 01:56:05;;;;;;;3.27;1.90;;;;;;;17.66;100.00;98644.09;12207572;19;20015;-86
2023/07/25 02:00:07;;;;;;;4.40;1.60;;;;;;;17.67;100.00;98644.94;12181433;19;20003;-84
2023/07/25 02:04:13;;;;;;;5.38;1.75;;;;;;;17.67;100.00;98650.53;12219404;19;20013;-86
2023/07/25 02:08:14;;;;;;;4.35;1.80;;;;;;;17.66;100.00;98638.53;12223213;19;20014;-86
2023/07/25 02:12:16;;;;;;;2.95;1.67;;;;;;;17.68;100.00;98639.03;12197342;19;20066;-86
2023/07/25 02:16:18;;;;;;;4.55;1.65;;;;;;;17.68;100.00;98641.84;12215692;19;20371;-86
2023/07/25 02:20:22;;;;;;;3.37;1.87;;;;;;;17.68;100.00;98650.19;12218004;19;20035;-86
2023/07/25 02:24:24;;;;;;;2.65;1.45;;;;;;;17.67;100.00;98651.34;12196061;19;20109;-85
2023/07/25 02:28:26;;;;;;;2.75;1.55;;;;;;;17.62;100.00;98659.84;12219881;19;20006;-86
2023/07/25 02:32:28;;;;;;;2.25;1.75;;;;;;;17.58;100.00;98658.88;12216453;19;20459;-86
2023/07/25 02:36:29;;;;;;;3.58;1.70;;;;;;;17.60;100.00;98658.53;12196997;19;20014;-87
2023/07/25 02:40:31;;;;;;;3.22;1.50;;;;;;;17.57;100.00;98653.59;12219069;19;20011;-88
2023/07/25 02:44:33;;;;;;;2.58;1.75;;;;;;;17.47;100.00;98661.13;12189385;19;20009;-87
2023/07/25 02:48:35;;;;;;;3.53;1.80;;;;;;;17.42;100.00;98649.31;12213849;19;20394;-87
2023/07/25 02:52:37;;;;;;;3.65;1.92;;;;;;;17.40;100.00;98644.06;12214564;19;20003;-86
2023/07/25 02:56:38;;;;;;;3.47;1.95;;;;;;;17.38;100.00;98640.78;12192521;19;20007;-88
2023/07/25 03:00:40;;;;;;;4.13;2.17;;;;;;;17.34;100.00;98641.75;12214945;19;20003;-87
2023/07/25 03:04:43;;;;;;;4.97;2.20;;;;;;;17.34;100.00;98636.16;12215803;19;20010;-86
2023/07/25 03:08:45;;;;;;;5.55;2.20;;;;;;;17.29;100.00;98634.38;12198142;19;20017;-87
2023/07/25 03:12:46;;;;;;;3.80;2.08;;;;;;;17.27;100.00;98637.47;12214071;19;20010;-86
2023/07/25 03:16:48;;;;;;;5.88;2.42;;;;;;;17.27;100.00;98634.69;12216669;19;20019;-88
2023/07/25 03:20:50;;;;;;;3.20;1.90;;;;;;;17.28;100.00;98625.19;12196549;19;20841;-88
2023/07/25 03:24:52;;;;;;;3.50;2.00;;;;;;;17.26;100.00;98609.97;12218133;19;20014;-85
2023/07/25 03:28:54;;;;;;;4.27;2.17;;;;;;;17.20;100.00;98603.72;12219183;19;20006;-88
2023/07/25 03:32:55;;;;;;;4.95;2.30;;;;;;;17.14;100.00;98602.22;12192509;19;20010;-87
2023/07/25 03:36:57;;;;;;;3.55;2.10;;;;;;;17.07;100.00;98602.72;12216875;19;20037;-87
2023/07/25 03:40:59;;;;;;;5.45;2.22;;;;;;;17.02;100.00;98599.25;12214542;19;20022;-87
2023/07/25 03:45:01;;;;;;;3.58;2.15;;;;;;;16.95;100.00;98594.13;12198127;19;20134;-86
2023/07/25 03:49:03;;;;;;;5.60;2.43;;;;;;;16.88;100.00;98590.19;12215244;19;20014;-86
2023/07/25 03:53:05;;;;;;;3.75;2.30;;;;;;;16.79;100.00;98582.63;12216396;19;20027;-87
2023/07/25 03:57:07;;;;;;;4.85;2.72;;;;;;;16.74;100.00;98570.78;12204557;19;20014;-87
2023/07/25 04:01:08;;;;;;;4.63;2.10;;;;;;;16.69;100.00;98571.75;12244702;19;20013;-89
2023/07/25 04:05:10;;;;;;;4.45;2.40;;;;;;;16.68;100.00;98566.50;12230129;19;20006;-87
2023/07/25 04:09:12;;;;;;;4.03;2.10;;;;;;;16.67;100.00;98574.03;12223120;19;20099;-89
2023/07/25 04:13:14;;;;;;;4.55;2.38;;;;;;;16.69;100.00;98560.63;12237584;19;20490;-88
2023/07/25 04:17:16;;;;;;;4.10;2.10;;;;;;;16.71;100.00;98555.53;12238831;19;20549;-88
2023/07/25 04:21:18;;;;;;;4.60;2.30;;;;;;;16.74;100.00;98565.22;12219148;19;20015;-87
2023/07/25 04:25:20;;;;;;;3.38;2.15;;;;;;;16.77;100.00;98579.31;12247370;19;20264;-88
2023/07/25 04:29:21;;;;;;;4.57;2.55;;;;;;;16.78;100.00;98575.41;12244115;19;20032;-87
2023/07/25 04:33:23;;;;;;;3.70;2.28;;;;;;;16.82;100.00;98587.53;12208746;19;20010;-89
2023/07/25 04:37:25;;;;;;;3.83;2.35;;;;;;;16.83;100.00;98586.38;12219853;19;20107;-86
2023/07/25 04:41:27;;;;;;;4.40;2.55;;;;;;;16.83;100.00;98597.50;12219864;19;20005;-88
2023/07/25 04:45:29;;;;;;;6.67;3.37;;;;;;;16.84;100.00;98593.59;12211616;19;20010;-89
2023/07/25 04:49:31;;;;;;;6.23;2.93;;;;;;;16.83;100.00;98603.06;12222861;19;20082;-87
2023/07/25 04:53:33;;;;;;;5.55;3.08;;;;;;;16.83;100.00;98617.00;12202788;19;20019;-89
2023/07/25 04:57:35;;;;;;;6.13;3.63;;;;;;;16.79;100.00;98627.13;12238693;19;20054;-88
2023/07/25 05:01:37;;;;;;;6.57;4.03;;;;;;;16.79;100.00;98615.19;12218071;19;20147;-88
2023/07/25 05:05:39;;;;;;;5.47;3.60;;;;;;;16.78;100.00;98617.16;12198907;19;20360;-88
2023/07/25 05:09:41;;;;;;;6.65;3.95;;;;;;;16.79;100.00;98621.56;12217281;19;20474;-89
2023/07/25 05:13:43;;;;;;;8.57;3.58;;;;;;;16.80;100.00;98631.53;12213472;19;20010;-88
2023/07/25 05:17:45;;;;;;;9.30;4.82;;;;;;;16.85;100.00;98636.16;12191900;19;20003;-89
2023/07/25 05:21:48;;;;;;;6.43;3.92;;;;;;;16.82;100.00;98632.06;12216060;19;20014;-88
2023/07/25 05:25:52;;;;;;;8.20;4.28;;;;;;;16.81;100.00;98621.25;12210734;19;20360;-86
2023/07/25 05:29:53;;;;;;;5.28;3.40;;;;;;;16.85;100.00;98620.28;12196057;19;20015;-88
2023/07/25 05:33:55;;;;;;;6.53;3.95;;;;;;;16.94;100.00;98608.38;12215368;19;20025;-87
2023/07/25 05:38:00;;;;;;;8.05;3.95;;;;;;;17.01;100.00;98611.50;12227520;19;20028;-88
2023/07/25 05:42:02;;;;;;;6.63;4.07;;;;;;;17.06;100.00;98611.38;12209419;19;20014;-87
2023/07/25 05:46:04;;;;;;;8.43;3.67;;;;;;;17.07;100.00;98608.28;12222768;19;20093;-88
2023/07/25 05:50:08;;;;;;;5.93;3.42;;;;;;;17.06;100.00;98606.63;12221690;19;20014;-88
2023/07/25 05:54:10;;;;;;;6.10;3.92;;;;;;;17.07;100.00;98610.22;12194475;19;20011;-88
2023/07/25 05:58:16;;;;;;;6.13;4.00;;;;;;;17.12;100.00;98614.81;12219951;19;20015;-89
2023/07/25 06:02:19;;;;;;;7.30;4.20;;;;;;;17.19;100.00;98607.66;12224790;19;20014;-88
2023/07/25 06:06:20;;;;;;;7.70;3.47;;;;;;;17.25;100.00;98611.94;12205269;19;20014;-90
2023/07/25 06:10:22;;;;;;;7.70;4.00;;;;;;;17.23;100.00;98597.50;12226570;19;20043;-90
2023/07/25 06:14:24;;;;;;;6.07;3.80;;;;;;;17.31;100.00;98587.50;12253505;19;20007;-87
2023/07/25 06:18:27;;;;;;;5.78;3.65;;;;;;;17.44;100.00;98596.91;12234779;19;20055;-87
2023/07/25 06:22:29;;;;;;;5.72;3.55;;;;;;;17.47;100.00;98591.50;12247008;19;20625;-86
2023/07/25 06:26:30;;;;;;;5.68;3.83;;;;;;;17.51;100.00;98580.53;12207964;19;20007;-82
2023/07/25 06:30:32;;;;;;;7.73;3.50;;;;;;;17.56;100.00;98566.44;12222089;19;20026;-84
2023/07/25 06:34:34;;;;;;;6.13;3.57;;;;;;;17.63;100.00;98571.53;12220440;19;20019;-88
2023/07/25 06:38:36;;;;;;;6.17;3.37;;;;;;;17.81;100.00;98572.38;12199628;19;20048;-85
2023/07/25 06:42:38;;;;;;;6.25;3.20;;;;;;;17.89;100.00;98571.56;12224970;19;20701;-87
2023/07/25 06:46:40;;;;;;;4.63;2.80;;;;;;;17.93;100.00;98561.38;12077363;19;2730688;-86
2023/07/25 06:50:44;;;;;;;4.28;2.58;;;;;;;17.89;100.00;98566.00;12199172;19;20036;-87
2023/07/25 06:54:46;;;;;;;6.47;3.20;;;;;;;17.74;100.00;98570.88;12191968;19;20011;-86
2023/07/25 06:58:48;;;;;;;6.07;3.17;;;;;;;17.58;100.00;98571.66;12223146;19;20007;-87
2023/07/25 07:02:49;;;;;;;4.38;2.95;;;;;;;17.47;100.00;98562.84;12198746;19;20678;-87
2023/07/25 07:06:54;;;;;;;4.63;2.63;;;;;;;17.47;100.00;98558.06;12221745;19;20026;-87
2023/07/25 07:10:56;;;;;;;8.20;2.83;;;;;;;17.59;100.00;98549.06;12222897;19;20011;-88
2023/07/25 07:14:58;;;;;;;7.00;3.08;;;;;;;17.70;100.00;98550.41;12205004;19;20025;-85
2023/07/25 07:19:00;;;;;;;5.80;3.60;;;;;;;17.83;100.00;98550.59;12220897;19;20015;-88
2023/07/25 07:23:01;;;;;;;6.27;3.00;;;;;;;17.88;100.00;98551.25;12224438;19;20079;-88
2023/07/25 07:27:04;;;;;;;5.22;2.75;;;;;;;17.89;100.00;98543.69;12201606;19;20014;-85
2023/07/25 07:31:09;;;;;;;6.20;2.90;;;;;;;17.89;100.00;98536.16;12219964;19;20007;-87
2023/07/25 07:35:11;;;;;;;6.97;3.10;;;;;;;17.82;100.00;98527.47;12216788;19;20006;-83
2023/07/25 07:39:13;;;;;;;7.82;3.30;;;;;;;17.75;100.00;98514.00;12195391;19;20085;-83
2023/07/25 07:43:16;;;;;;;8.15;3.65;;;;;;;17.77;100.00;98508.09;12218923;19;20010;-84
2023/07/25 07:47:18;;;;;;;6.93;3.53;;;;;;;17.80;100.00;98498.31;12218886;19;20007;-84
2023/07/25 07:51:20;;;;;;;6.10;2.92;;;;;;;17.73;100.00;98509.94;12196110;19;20007;-84
2023/07/25 07:55:22;;;;;;;7.17;3.60;;;;;;;17.67;100.00;98516.81;12214668;19;20110;-80
2023/07/25 07:59:25;;;;;;;6.20;4.07;;;;;;;17.50;100.00;98517.63;12216568;19;20464;-81
2023/07/25 08:03:27;;;;;;;7.60;4.22;;;;;;;17.38;100.00;98523.03;12192715;19;20506;-82
2023/07/25 08:07:29;;;;;;;7.20;4.97;;;;;;;17.18;100.00;98500.22;12214302;19;20010;-85
2023/07/25 08:11:31;;;;;;;7.17;4.63;;;;;;;16.90;100.00;98516.38;12203100;19;20010;-86
2023/07/25 08:15:33;;;;;;;8.40;5.70;;;;;;;16.74;100.00;98512.34;12217554;19;20474;-86
2023/07/25 08:19:35;;;;;;;11.30;5.70;;;;;;;16.73;100.00;98499.59;12221764;19;20467;-86
2023/07/25 08:23:36;;;;;;;8.25;5.28;;;;;;;16.73;100.00;98502.38;12197858;19;21248;-87
2023/07/25 08:27:38;;;;;;;9.23;5.63;;;;;;;16.72;100.00;98503.53;12220218;19;20015;-88
2023/07/25 08:31:40;;;;;;;11.48;6.63;;;;;;;16.63;100.00;98506.28;12216070;19;20015;-84
2023/07/25 08:35:42;;;;;;;13.68;8.13;;;;;;;16.47;100.00;98491.16;12191038;19;20480;-82
2023/07/25 08:39:44;;;;;;;13.43;6.72;;;;;;;16.29;100.00;98493.84;12214754;19;20030;-84
2023/07/25 08:43:51;;;;;;;14.70;7.93;;;;;;;16.14;100.00;98508.97;12215040;19;20100;-83
2023/07/25 08:48:02;;;;;;;20.30;8.32;;;;;;;16.08;100.00;98488.03;12189937;19;20014;-79
2023/07/25 08:52:08;;;;;;;19.10;7.60;;;;;;;15.91;100.00;98488.78;12209839;19;20019;-80
2023/07/25 08:56:10;;;;;;;22.23;9.85;;;;;;;15.80;100.00;98490.16;12210605;19;20003;-81
2023/07/25 09:00:13;;;;;;;20.92;9.70;;;;;;;15.62;100.00;98503.06;12195750;19;20010;-85
2023/07/25 09:04:15;;;;;;;19.05;9.60;;;;;;;15.53;100.00;98493.00;12210528;19;20015;-84
2023/07/25 09:08:17;;;;;;;;;;;;;;;15.51;100.00;98485.00;12212230;19;20008;-85
2023/07/25 09:12:20;;;;;;;15.10;9.35;;;;;;;15.46;100.00;98508.16;12190085;19;19910;-85
2023/07/25 09:16:24;;;;;;;21.75;11.23;;;;;;;15.31;100.00;98541.81;12213523;19;20360;-83
2023/07/25 09:20:26;;;;;;;24.83;13.00;;;;;;;15.01;100.00;98574.63;12212505;19;20442;-81
2023/07/25 09:24:37;;;;;;;44.55;12.45;;;;;;;14.68;100.00;98575.88;12195209;19;20463;-82
2023/07/25 09:28:54;;;;;;;38.40;11.70;;;;;;;14.40;100.00;98528.72;12212305;19;20333;-83
2023/07/25 09:33:00;;;;;;;19.30;8.77;;;;;;;14.28;100.00;98539.47;12193550;19;20014;-82
2023/07/25 09:37:04;;;;;;;30.17;11.05;;;;;;;14.29;100.00;98530.03;12214241;19;20436;-82
2023/07/25 09:41:10;;;;;;;20.98;8.95;;;;;;;14.30;100.00;98523.34;12221044;19;20034;-81
2023/07/25 09:45:13;;;;;;;16.25;7.35;;;;;;;14.42;100.00;98543.06;12185517;19;20083;-81
2023/07/25 09:49:20;;;;;;;20.67;9.15;;;;;;;14.58;100.00;98547.22;12214023;19;20011;-82
2023/07/25 09:53:21;;;;;;;21.95;9.60;;;;;;;15.25;100.00;98557.75;12206144;19;20366;-78
2023/07/25 09:57:24;;;;;;;19.63;9.00;;;;;;;16.12;100.00;98564.09;12188267;19;20070;-82
2023/07/25 10:01:27;;;;;;;;;;;;;;;16.64;100.00;98571.88;12213290;19;20010;-81
2023/07/25 10:05:29;;;;;;;14.77;7.43;;;;;;;17.14;100.00;98571.63;12205639;19;19922;-80
2023/07/25 10:09:33;;;;;;;12.88;6.90;;;;;;;17.00;100.00;98570.91;12189094;19;20743;-85
2023/07/25 10:13:36;;;;;;;15.40;7.70;;;;;;;16.95;100.00;98576.63;12218201;19;20393;-82
2023/07/25 10:17:38;;;;;;;11.95;6.95;;;;;;;16.63;100.00;98598.06;12196358;19;20011;-82
2023/07/25 10:21:51;;;;;;;12.70;7.97;;;;;;;16.47;100.00;98596.81;12219838;19;20138;-82
2023/07/25 10:25:53;;;;;;;11.85;6.90;;;;;;;16.59;100.00;98599.81;12223991;19;20011;-83
2023/07/25 10:30:00;;;;;;;15.63;8.45;;;;;;;16.66;100.00;98603.00;12209242;19;20014;-83
2023/07/25 10:34:04;;;;;;;13.25;7.93;;;;;;;16.76;100.00;98599.94;12228029;19;20024;-83
2023/07/25 10:38:08;;;;;;;18.65;10.90;;;;;;;16.76;100.00;98599.94;12234095;19;20018;-84
2023/07/25 10:42:15;;;;;;;21.75;11.75;;;;;;;17.11;100.00;98611.22;12211112;19;20425;-82
2023/07/25 10:46:18;;;;;;;12.85;8.93;;;;;;;17.57;100.00;98622.97;12228947;19;20003;-84
2023/07/25 10:50:26;;;;;;;17.80;10.20;;;;;;;17.51;100.00;98636.22;12213767;19;20102;-83
2023/07/25 10:54:29;;;;;;;15.05;9.77;;;;;;;17.62;100.00;98643.13;12189502;19;20017;-84
2023/07/25 10:58:32;;;;;;;14.07;8.82;;;;;;;17.77;100.00;98651.03;12217848;19;20036;-83
2023/07/25 11:02:40;;;;;;;14.20;8.77;;;;;;;17.65;100.00;98658.38;12199163;19;20097;-84
2023/07/25 11:06:42;;;;;;;12.88;8.07;;;;;;;17.49;100.00;98671.91;12216055;19;20049;-83
2023/07/25 11:10:44;;;;;;;11.77;8.32;;;;;;;17.58;100.00;98671.94;12218767;19;20023;-84
2023/07/25 11:14:46;;;;;;;11.57;7.40;;;;;;;17.57;100.00;98668.34;12199125;19;20018;-85
2023/07/25 11:18:50;;;;;;;15.00;8.20;;;;;;;17.34;100.00;98677.94;12222720;19;20010;-85
2023/07/25 11:22:53;;;;;;;13.63;7.70;;;;;;;17.39;100.00;98677.81;12222943;19;20010;-85
2023/07/25 11:26:55;;;;;;;10.93;6.28;;;;;;;17.62;100.00;98676.56;12195473;19;20497;-84
2023/07/25 11:30:58;;;;;;;9.93;6.07;;;;;;;17.84;100.00;98677.59;12217020;19;20369;-84
2023/07/25 11:35:01;;;;;;;7.53;5.57;;;;;;;18.21;100.00;98676.19;12216272;19;20073;-84
2023/07/25 11:39:08;;;;;;;9.18;4.82;;;;;;;18.02;100.00;98684.03;12197204;19;20244;-85
2023/07/25 11:43:11;;;;;;;5.75;3.40;;;;;;;17.80;100.00;98682.19;12220531;19;20022;-85
2023/07/25 11:47:13;;;;;;;;;;;;;;;17.89;100.00;98697.78;12220684;19;20093;-83
2023/07/25 11:51:17;;;;;;;6.95;3.22;;;;;;;18.15;100.00;98688.63;12198183;19;20345;-83
2023/07/25 11:55:19;;;;;;;10.57;5.03;;;;;;;18.71;100.00;98697.97;12212688;19;20027;-83
2023/07/25 11:59:21;;;;;;;5.47;2.47;;;;;;;18.98;100.00;98707.13;12218720;19;20010;-83
2023/07/25 12:03:25;;;;;;;3.03;1.92;;;;;;;19.02;100.00;98708.09;12194468;19;20049;-82
2023/07/25 12:07:47;;;;;;;2.42;1.50;;;;;;;19.01;100.00;98717.63;12211971;19;20098;-82
2023/07/25 12:11:49;;;;;;;3.85;1.70;;;;;;;19.13;100.00;98726.94;12187766;19;20017;-82
2023/07/25 12:15:50;;;;;;;4.03;1.90;;;;;;;19.36;100.00;98718.31;12208433;19;20357;-84
2023/07/25 12:19:53;;;;;;;6.20;1.90;;;;;;;19.57;100.00;98713.63;12206783;19;20051;-84
2023/07/25 12:24:00;;;;;;;4.35;2.00;;;;;;;19.84;100.00;98719.09;12188944;19;20053;-83
2023/07/25 12:28:04;;;;;;;3.50;2.33;;;;;;;19.73;100.00;98718.69;12216129;19;20011;-85
2023/07/25 12:32:07;;;;;;;3.65;2.15;;;;;;;19.23;100.00;98722.97;12217847;19;20414;-86
2023/07/25 12:36:08;;;;;;;3.40;2.13;;;;;;;18.61;100.00;98721.41;12194717;19;20015;-86
2023/07/25 12:40:10;;;;;;;3.33;2.20;;;;;;;18.16;100.00;98732.91;12220286;19;20662;-85
2023/07/25 12:44:12;;;;;;;3.88;2.28;;;;;;;17.81;100.00;98734.00;12219496;19;20015;-85
2023/07/25 12:48:14;;;;;;;3.97;2.27;;;;;;;17.81;100.00;98731.19;12198073;19;20035;-86
2023/07/25 12:52:18;;;;;;;2.95;1.85;;;;;;;18.28;100.00;98731.44;12217768;19;20014;-86
2023/07/25 12:56:20;;;;;;;7.30;2.53;;;;;;;19.09;100.00;98734.34;12212962;19;20006;-86
2023/07/25 13:00:22;;;;;;;3.43;2.37;;;;;;;20.11;100.00;98723.38;12198458;19;20011;-87
2023/07/25 13:04:24;;;;;;;3.25;1.80;;;;;;;20.24;100.00;98725.09;12227705;19;21115;-87
2023/07/25 13:08:26;;;;;;;4.13;2.00;;;;;;;20.08;100.00;98716.50;12207559;19;20006;-88
2023/07/25 13:12:29;;;;;;;3.60;2.42;;;;;;;19.88;100.00;98732.06;12182338;19;20786;-88
2023/07/25 13:16:31;;;;;;;;;;;;;;;19.70;100.00;98733.34;12217145;19;20010;-89
2023/07/25 13:20:35;;;;;;;3.72;1.92;;;;;;;19.74;100.00;98725.91;12191153;19;19935;-89
2023/07/25 13:24:37;;;;;;;2.08;1.50;;;;;;;20.23;100.00;98732.66;12216664;19;20022;-90
2023/07/25 13:28:39;;;;;;;4.57;1.77;;;;;;;20.94;100.00;98737.34;12205970;19;20490;-90
2023/07/25 13:32:41;;;;;;;3.33;2.05;;;;;;;21.34;100.00;98733.13;12184763;19;20021;-91
2023/07/25 13:36:44;;;;;;;3.60;1.90;;;;;;;22.10;92.73;98734.47;12207297;19;20427;-90
2023/07/25 13:40:52;;;;;;;8.23;1.70;;;;;;;23.74;77.21;98729.09;12209087;19;20007;-90
2023/07/25 13:45:07;;;;;;;2.55;1.75;;;;;;;23.89;75.94;98739.53;12189000;19;20031;-92
2023/07/25 13:49:09;;;;;;;4.65;1.65;;;;;;;23.92;74.56;98726.72;12212254;19;20006;-89
2023/07/25 13:53:11;;;;;;;2.25;1.30;;;;;;;23.51;77.88;98732.50;12209029;19;20010;-90
2023/07/25 13:57:13;;;;;;;3.33;1.80;;;;;;;22.92;83.71;98731.31;12188036;19;20003;-91
2023/07/25 14:01:15;;;;;;;4.88;1.65;;;;;;;22.05;82.71;98738.31;12222840;19;20010;-91
2023/07/25 14:05:17;;;;;;;3.40;1.90;;;;;;;21.33;89.66;98740.72;12220286;19;20021;-92
2023/07/25 14:09:19;;;;;;;3.85;2.00;;;;;;;20.75;93.14;98739.84;12196654;19;20002;-91
2023/07/25 14:18:42;;;;;;;3.95;1.80;;;;;;;20.03;92.00;98745.47;12225329;19;20267;-91
2023/07/25 14:22:44;;;;;;;3.53;2.28;;;;;;;19.73;94.72;98755.00;12229253;19;20014;-90
2023/07/25 14:26:57;;;;;;;4.63;2.05;;;;;;;19.57;94.81;98744.38;12199938;19;20014;-91
2023/07/25 14:31:00;;;;;;;3.95;2.10;;;;;;;19.43;99.34;98763.31;12224374;19;20015;-91
2023/07/25 14:35:03;;;;;;;3.35;2.15;;;;;;;19.42;96.61;98760.84;12218987;19;20022;-90
2023/07/25 14:39:05;;;;;;;3.72;2.30;;;;;;;19.43;98.06;98766.13;12198220;19;20022;-90
2023/07/25 14:43:14;;;;;;;5.70;2.38;;;;;;;19.36;100.00;98771.38;12224777;19;20006;-89
2023/07/25 14:47:17;;;;;;;2.72;1.85;;;;;;;19.13;100.00;98770.81;12224514;19;20022;-91
2023/07/25 14:51:19;;;;;;;;;;;;;;;18.92;100.00;98789.38;12170968;19;20010;-91
2023/07/25 14:55:21;;;;;;;6.18;2.00;;;;;;;18.68;95.85;98790.72;12223696;19;20328;-89
2023/07/25 14:59:23;;;;;;;;;;;;;;;18.33;100.00;98784.28;12226452;19;20466;-86
2023/07/25 15:03:25;;;;;;;4.88;2.47;;;;;;;18.28;100.00;98792.78;12203619;19;19917;-84
2023/07/25 15:07:27;;;;;;;5.10;2.10;;;;;;;18.55;100.00;98794.47;12260349;19;20043;-85
2023/07/25 15:11:30;;;;;;;9.03;4.90;;;;;;;18.80;100.00;98795.63;12257800;19;20031;-86
2023/07/25 15:15:32;;;;;;;3.90;2.50;;;;;;;19.14;100.00;98794.78;12204691;19;20007;-87
2023/07/25 15:19:34;;;;;;;4.30;2.20;;;;;;;19.27;100.00;98798.53;12221204;19;20021;-87
2023/07/25 15:23:35;;;;;;;3.65;2.10;;;;;;;19.39;100.00;98804.25;12208699;19;20035;-88
2023/07/25 15:27:37;;;;;;;6.63;2.10;;;;;;;19.59;100.00;98813.88;12226418;19;20011;-86
2023/07/25 15:31:39;;;;;;;3.72;2.13;;;;;;;19.64;100.00;98810.09;12223961;19;20018;-87
2023/07/25 15:35:41;;;;;;;4.13;2.25;;;;;;;19.77;100.00;98811.88;12224059;19;20007;-85
2023/07/25 15:39:43;;;;;;;3.83;2.40;;;;;;;19.61;100.00;98810.78;12253804;19;20025;-86
2023/07/25 15:43:47;;;;;;;3.63;2.30;;;;;;;19.45;100.00;98811.28;12259315;19;20010;-86
2023/07/25 15:47:49;;;;;;;5.55;2.40;;;;;;;19.34;100.00;98810.84;12243313;19;20406;-85
2023/07/25 15:51:54;;;;;;;4.73;2.00;;;;;;;19.39;100.00;98814.59;12223270;19;20033;-84
2023/07/25 15:55:56;;;;;;;5.10;2.33;;;;;;;19.48;100.00;98819.03;12217677;19;20268;-86
2023/07/25 15:59:58;;;;;;;3.60;2.40;;;;;;;19.49;100.00;98825.44;12207403;19;20475;-85
2023/07/25 16:03:59;;;;;;;7.10;2.38;;;;;;;19.43;100.00;98822.00;12232516;19;20499;-86
2023/07/25 16:08:02;;;;;;;3.92;2.30;;;;;;;19.37;100.00;98823.31;12223900;19;20015;-86
2023/07/25 16:12:04;;;;;;;4.40;2.20;;;;;;;19.33;100.00;98825.13;12191081;19;20010;-86
2023/07/25 16:16:10;;;;;;;4.85;2.78;;;;;;;19.39;100.00;98831.34;12214030;19;20027;-85
2023/07/25 16:20:12;;;;;;;3.58;2.17;;;;;;;19.55;99.87;98829.69;12210575;19;20378;-86
2023/07/25 16:24:14;;;;;;;4.85;2.28;;;;;;;19.67;99.00;98834.63;12193935;19;20014;-85
2023/07/25 16:28:16;;;;;;;4.43;2.60;;;;;;;19.63;100.00;98841.97;12214357;19;20022;-85
2023/07/25 16:32:18;;;;;;;6.25;2.85;;;;;;;19.52;100.00;98842.34;12215763;19;20015;-84
2023/07/25 16:36:21;;;;;;;4.40;2.65;;;;;;;19.43;100.00;98841.56;12183512;19;20023;-87
2023/07/25 16:40:24;;;;;;;6.05;2.90;;;;;;;19.42;100.00;98853.84;12214064;19;20526;-86
2023/07/25 16:44:26;;;;;;;5.43;2.38;;;;;;;19.44;100.00;98856.34;12211819;19;20054;-87
2023/07/25 16:48:28;;;;;;;4.13;2.70;;;;;;;19.48;100.00;98855.34;12197153;19;20010;-89
2023/07/25 16:52:34;;;;;;;4.77;2.97;;;;;;;19.56;100.00;98857.28;12218622;19;20407;-88
2023/07/25 16:56:35;;;;;;;4.18;2.58;;;;;;;19.69;100.00;98857.44;12195075;19;20051;-89
2023/07/25 17:00:37;;;;;;;5.28;2.50;;;;;;;19.76;100.00;98863.34;12214929;19;20011;-88
2023/07/25 17:04:41;;;;;;;6.43;2.92;;;;;;;19.84;98.52;98870.91;12214422;19;20034;-90
2023/07/25 17:08:44;;;;;;;;;;;;;;;19.87;98.23;98870.22;12191297;19;20018;-89
2023/07/25 17:12:46;;;;;;;6.35;2.22;;;;;;;20.00;95.35;98882.34;12207464;19;19919;-89
2023/07/25 17:16:48;;;;;;;6.13;2.30;;;;;;;19.90;92.68;98885.47;12212115;19;20436;-89
2023/07/25 17:20:51;;;;;;;4.45;2.28;;;;;;;19.75;90.90;98881.25;12191587;19;20017;-89
2023/07/25 17:24:53;;;;;;;4.50;2.20;;;;;;;19.53;93.17;98883.09;12210905;19;20014;-89
2023/07/25 17:28:56;;;;;;;6.97;2.67;;;;;;;19.37;94.74;98889.56;12210734;19;20031;-89
2023/07/25 17:32:58;;;;;;;5.23;2.30;;;;;;;19.18;95.43;98899.06;12195703;19;20015;-86
2023/07/25 17:37:03;;;;;;;4.18;2.25;;;;;;;18.96;97.09;98902.84;12222948;19;20689;-87
2023/07/25 17:41:04;;;;;;;6.03;2.43;;;;;;;18.83;96.61;98910.25;12226758;19;20364;-86
2023/07/25 17:45:08;;;;;;;5.50;2.50;;;;;;;18.79;97.71;98909.25;12197197;19;20010;-86
2023/07/25 17:49:11;;;;;;;5.53;2.45;;;;;;;18.64;94.32;98916.06;12221138;19;20015;-86
2023/07/25 17:53:13;;;;;;;;;;;;;;;18.41;85.59;98926.53;12222333;19;20003;-87
2023/07/25 17:57:16;;;;;;;6.00;2.55;;;;;;;18.41;82.72;98932.13;12197550;19;19928;-87
2023/07/25 18:01:19;;;;;;;4.70;2.00;;;;;;;18.32;85.81;98944.38;12218354;19;20791;-86
2023/07/25 18:05:22;;;;;;;8.02;2.15;;;;;;;18.22;82.73;98948.28;12222694;19;20743;-87
2023/07/25 18:09:24;;;;;;;2.90;1.90;;;;;;;18.11;80.90;98947.72;12202448;19;20007;-87
2023/07/25 18:13:26;;;;;;;3.83;1.83;;;;;;;18.01;77.21;98961.94;12217626;19;20415;-86
2023/07/25 18:17:28;;;;;;;5.32;2.25;;;;;;;17.81;76.67;98970.84;12229515;19;20791;-87
2023/07/25 18:26:42;;;;;;;6.68;2.35;;;;;;;17.57;80.89;98976.72;12199491;19;20010;-86
2023/07/25 18:30:44;;;;;;;7.37;2.80;;;;;;;17.49;83.45;98983.84;12226418;19;20026;-86
2023/07/25 18:34:46;;;;;;;3.90;2.03;;;;;;;17.41;83.71;98992.97;12223291;19;20023;-86
2023/07/25 18:38:48;;;;;;;6.15;2.60;;;;;;;17.32;83.76;99001.25;12210047;19;20019;-86
2023/07/25 18:42:50;;;;;;;6.18;2.70;;;;;;;17.28;84.17;99003.84;12220860;19;20002;-84
2023/07/25 18:46:51;;;;;;;4.93;2.37;;;;;;;17.25;83.88;98995.28;12222742;19;20714;-84
2023/07/25 18:50:53;;;;;;;4.82;2.22;;;;;;;17.24;82.54;99011.16;12199270;19;20018;-87